createdAt,value
2019-05-12T00:00:09.986Z,6.10
2019-05-12T00:02:39.465Z,8.47
2019-05-12T00:05:05.445Z,5.23
2019-05-12T00:07:32.058Z,6.93
2019-05-12T00:09:58.690Z,5.10
2019-05-12T00:12:27.641Z,6.83
2019-05-12T00:14:53.838Z,5.53
2019-05-12T00:17:20.450Z,6.23
2019-05-12T00:19:47.929Z,6.43
2019-05-12T00:22:18.112Z,4.60
2019-05-12T00:24:44.950Z,6.37
2019-05-12T00:27:17.837Z,7.33
2019-05-12T00:29:44.625Z,5.00
2019-05-12T00:32:11.260Z,5.30
2019-05-12T00:34:38.556Z,7.40
2019-05-12T00:37:08.168Z,4.70
2019-05-12T00:39:34.318Z,4.40
2019-05-12T00:42:01.043Z,4.87
2019-05-12T00:44:28.459Z,6.63
2019-05-12T00:46:57.578Z,4.40
2019-05-12T00:49:24.119Z,7.23
2019-05-12T00:51:50.754Z,6.73
2019-05-12T00:54:17.817Z,9.97
2019-05-12T00:56:44.653Z,5.43
2019-05-12T00:59:11.271Z,5.83
2019-05-12T01:01:38.170Z,7.73
2019-05-12T01:04:05.138Z,7.13
2019-05-12T01:06:31.766Z,5.47
2019-05-12T01:08:58.407Z,6.00
2019-05-12T01:11:25.311Z,8.27
2019-05-12T01:13:51.946Z,6.93
2019-05-12T01:16:18.758Z,7.43
2019-05-12T01:18:47.851Z,7.00
2019-05-12T01:21:14.076Z,8.00
2019-05-12T01:23:53.872Z,8.10
2019-05-12T01:26:09.227Z,8.23
2019-05-12T01:28:38.150Z,6.97
2019-05-12T01:31:08.443Z,6.40
2019-05-12T01:33:34.818Z,10.03
2019-05-12T01:36:01.438Z,6.63
2019-05-12T01:38:28.775Z,8.00
2019-05-12T01:40:58.206Z,9.37
2019-05-12T01:43:24.419Z,7.73
2019-05-12T01:45:50.994Z,7.53
2019-05-12T01:48:18.420Z,10.23
2019-05-12T01:50:47.442Z,8.87
2019-05-12T01:53:13.699Z,6.30
2019-05-12T01:55:40.269Z,5.03
2019-05-12T01:58:08.397Z,8.03
2019-05-12T02:00:38.373Z,7.37
2019-05-12T02:03:04.035Z,7.87
2019-05-12T02:05:30.606Z,7.23
2019-05-12T02:07:58.440Z,7.17
2019-05-12T02:10:25.351Z,6.13
2019-05-12T02:12:52.067Z,5.03
2019-05-12T02:15:18.926Z,8.20
2019-05-12T02:17:47.959Z,7.40
2019-05-12T02:20:14.462Z,7.27
2019-05-12T02:22:41.042Z,9.13
2019-05-12T02:25:08.189Z,6.77
2019-05-12T02:27:35.187Z,4.17
2019-05-12T02:30:01.969Z,6.67
2019-05-12T02:32:37.469Z,5.73
2019-05-12T02:34:57.324Z,8.43
2019-05-12T02:37:26.286Z,4.67
2019-05-12T02:39:55.324Z,6.10
2019-05-12T02:42:20.827Z,6.80
2019-05-12T02:44:47.399Z,6.60
2019-05-12T02:47:16.114Z,4.77
2019-05-12T02:49:44.916Z,4.17
2019-05-12T02:52:11.132Z,7.20
2019-05-12T02:54:51.935Z,8.37
2019-05-12T02:57:07.964Z,8.47
2019-05-12T02:59:36.503Z,9.77
2019-05-12T03:02:05.284Z,5.33
2019-05-12T03:04:34.986Z,6.73
2019-05-12T03:07:06.178Z,7.30
2019-05-12T03:09:30.774Z,5.83
2019-05-12T03:11:58.795Z,7.17
2019-05-12T03:14:25.693Z,8.50
2019-05-12T03:16:53.999Z,6.43
2019-05-12T03:19:20.746Z,7.10
2019-05-12T03:21:47.374Z,5.70
2019-05-12T03:24:17.445Z,5.40
2019-05-12T03:26:44.967Z,6.67
2019-05-12T03:29:11.122Z,8.37
2019-05-12T03:31:41.003Z,7.20
2019-05-12T03:34:09.520Z,6.10
2019-05-12T03:36:42.357Z,5.27
2019-05-12T03:39:05.891Z,6.17
2019-05-12T03:41:34.725Z,10.53
2019-05-12T03:44:01.080Z,6.87
2019-05-12T03:46:27.700Z,5.57
2019-05-12T03:48:55.501Z,7.30
2019-05-12T03:51:25.122Z,6.63
2019-05-12T03:53:50.935Z,6.63
2019-05-12T03:56:17.552Z,7.33
2019-05-12T03:59:04.762Z,7.83
2019-05-12T04:01:36.325Z,6.67
2019-05-12T04:04:05.130Z,9.77
2019-05-12T04:06:34.401Z,9.90
2019-05-12T04:09:00.213Z,7.57
2019-05-12T04:11:26.883Z,4.60
2019-05-12T04:13:55.029Z,8.70
2019-05-12T04:16:24.677Z,6.87
2019-05-12T04:18:50.483Z,10.83
2019-05-12T04:21:17.119Z,6.93
2019-05-12T04:23:44.441Z,7.57
2019-05-12T04:26:16.291Z,9.20
2019-05-12T04:28:39.690Z,6.37
2019-05-12T04:31:06.322Z,5.87
2019-05-12T04:33:34.694Z,9.50
2019-05-12T04:36:01.473Z,6.73
2019-05-12T04:38:28.372Z,5.63
2019-05-12T04:40:55.477Z,10.77
2019-05-12T04:43:25.384Z,5.50
2019-05-12T04:45:50.951Z,8.73
2019-05-12T04:48:21.329Z,7.53
2019-05-12T04:50:46.577Z,6.17
2019-05-12T04:53:14.371Z,6.47
2019-05-12T04:55:44.568Z,8.43
2019-05-12T04:58:10.498Z,6.30
2019-05-12T05:00:37.138Z,7.47
2019-05-12T05:03:05.059Z,10.07
2019-05-12T05:05:35.300Z,7.47
2019-05-12T05:08:04.047Z,6.23
2019-05-12T05:10:29.551Z,7.33
2019-05-12T05:12:56.172Z,8.27
2019-05-12T05:15:24.989Z,8.73
2019-05-12T05:17:54.309Z,9.23
2019-05-12T05:20:19.894Z,8.17
2019-05-12T05:22:46.512Z,7.13
2019-05-12T05:25:14.379Z,8.30
2019-05-12T05:27:41.463Z,6.47
2019-05-12T05:30:08.506Z,8.83
2019-05-12T05:32:35.123Z,8.20
2019-05-12T05:35:03.935Z,8.27
2019-05-12T05:37:30.918Z,10.73
2019-05-12T05:39:59.258Z,8.53
2019-05-12T05:42:28.422Z,9.00
2019-05-12T05:44:54.468Z,8.00
2019-05-12T05:47:27.112Z,9.50
2019-05-12T05:49:49.846Z,9.67
2019-05-12T05:52:16.462Z,9.87
2019-05-12T05:54:44.012Z,9.80
2019-05-12T05:57:10.820Z,6.73
2019-05-12T05:59:37.450Z,9.40
2019-05-12T06:02:04.882Z,8.40
2019-05-12T06:04:33.919Z,7.00
2019-05-12T06:07:00.413Z,18.03
2019-05-12T06:09:27.025Z,8.70
2019-05-12T06:11:54.225Z,8.63
2019-05-12T06:14:23.064Z,7.33
2019-05-12T06:16:49.766Z,9.07
2019-05-12T06:19:16.404Z,9.20
2019-05-12T06:21:44.086Z,8.77
2019-05-12T06:24:15.330Z,8.77
2019-05-12T06:26:53.737Z,8.90
2019-05-12T06:29:11.316Z,8.27
2019-05-12T06:31:38.802Z,9.10
2019-05-12T06:34:13.959Z,9.30
2019-05-12T06:36:34.193Z,7.80
2019-05-12T06:39:00.970Z,8.40
2019-05-12T06:41:27.587Z,7.90
2019-05-12T06:43:54.267Z,9.80
2019-05-12T06:46:23.622Z,6.17
2019-05-12T06:48:50.318Z,10.00
2019-05-12T06:51:22.576Z,6.10
2019-05-12T06:53:45.471Z,8.00
2019-05-12T06:56:15.352Z,6.50
2019-05-12T06:58:40.614Z,7.37
2019-05-12T07:01:10.545Z,7.47
2019-05-12T07:03:37.276Z,5.93
2019-05-12T07:06:09.139Z,7.23
2019-05-12T07:08:38.304Z,11.63
2019-05-12T07:11:03.711Z,12.13
2019-05-12T07:13:30.130Z,7.53
2019-05-12T07:15:58.642Z,7.20
2019-05-12T07:18:32.064Z,5.43
2019-05-12T07:20:53.937Z,6.63
2019-05-12T07:23:25.968Z,7.50
2019-05-12T07:25:49.490Z,8.03
2019-05-12T07:28:16.219Z,9.27
2019-05-12T07:30:44.128Z,5.93
2019-05-12T07:33:11.071Z,9.03
2019-05-12T07:35:38.491Z,5.60
2019-05-12T07:38:05.427Z,8.07
2019-05-12T07:40:34.893Z,7.17
2019-05-12T07:43:03.992Z,6.70
2019-05-12T07:45:31.037Z,4.67
2019-05-12T07:47:59.528Z,6.17
2019-05-12T07:50:27.376Z,2.97
2019-05-12T07:52:54.362Z,3.53
2019-05-12T07:55:21.083Z,2.80
2019-05-12T07:57:55.247Z,2.67
2019-05-12T08:00:21.051Z,3.33
2019-05-12T08:02:45.234Z,3.43
2019-05-12T08:05:19.450Z,3.17
2019-05-12T08:07:40.483Z,3.73
2019-05-12T08:10:15.786Z,3.80
2019-05-12T08:12:35.839Z,4.97
2019-05-12T08:15:09.297Z,2.40
2019-05-12T08:17:33.712Z,4.80
2019-05-12T08:20:00.579Z,3.73
2019-05-12T08:22:29.301Z,3.60
2019-05-12T08:24:55.743Z,15.97
2019-05-12T08:27:23.403Z,7.70
2019-05-12T08:29:52.477Z,5.57
2019-05-12T08:32:20.410Z,3.27
2019-05-12T08:34:47.302Z,2.50
2019-05-12T08:37:14.056Z,3.03
2019-05-12T08:39:41.059Z,4.87
2019-05-12T08:42:07.799Z,2.70
2019-05-12T08:44:40.380Z,5.07
2019-05-12T08:47:03.912Z,3.53
2019-05-12T08:49:34.014Z,2.77
2019-05-12T08:52:00.430Z,3.13
2019-05-12T08:54:27.231Z,2.93
2019-05-12T08:56:59.343Z,5.43
2019-05-12T08:59:27.109Z,11.50
2019-05-12T09:01:53.854Z,4.23
2019-05-12T09:04:20.135Z,4.57
2019-05-12T09:06:50.103Z,3.67
2019-05-12T09:09:15.735Z,5.73
2019-05-12T09:11:44.022Z,3.40
2019-05-12T09:14:10.886Z,3.13
2019-05-12T09:16:37.594Z,4.30
2019-05-12T09:19:04.931Z,4.30
2019-05-12T09:21:34.391Z,2.50
2019-05-12T09:24:00.439Z,3.37
2019-05-12T09:26:28.604Z,3.00
2019-05-12T09:28:55.633Z,2.50
2019-05-12T09:31:25.562Z,3.43
2019-05-12T09:33:50.778Z,2.17
2019-05-12T09:36:21.708Z,3.17
2019-05-12T09:38:45.934Z,2.53
2019-05-12T09:41:13.952Z,2.87
2019-05-12T09:43:46.447Z,3.13
2019-05-12T09:46:09.442Z,2.67
2019-05-12T09:48:39.086Z,3.80
2019-05-12T09:51:06.781Z,3.60
2019-05-12T09:53:34.067Z,2.70
2019-05-12T09:56:01.022Z,2.10
2019-05-12T09:58:27.972Z,2.23
2019-05-12T10:00:54.727Z,3.33
2019-05-12T10:03:21.354Z,2.70
2019-05-12T10:05:48.190Z,3.73
2019-05-12T10:08:15.036Z,2.73
2019-05-12T10:10:46.730Z,2.20
2019-05-12T10:13:13.661Z,4.00
2019-05-12T10:15:39.904Z,2.10
2019-05-12T10:18:11.091Z,3.57
2019-05-12T10:20:39.673Z,3.60
2019-05-12T10:23:04.541Z,4.03
2019-05-12T10:25:33.678Z,2.50
2019-05-12T10:28:02.954Z,2.53
2019-05-12T10:30:28.639Z,3.03
2019-05-12T10:32:56.091Z,2.07
2019-05-12T10:35:26.252Z,3.07
2019-05-12T10:37:53.651Z,2.77
2019-05-12T10:40:20.006Z,2.50
2019-05-12T10:42:49.534Z,2.27
2019-05-12T10:45:20.520Z,4.07
2019-05-12T10:47:44.651Z,3.67
2019-05-12T10:50:11.362Z,5.83
2019-05-12T10:52:39.078Z,2.37
2019-05-12T10:55:07.208Z,3.07
2019-05-12T10:57:33.943Z,2.97
2019-05-12T11:00:00.655Z,2.63
2019-05-12T11:02:30.398Z,3.57
2019-05-12T11:04:55.814Z,2.10
2019-05-12T11:07:23.060Z,3.17
2019-05-12T11:09:51.263Z,3.57
2019-05-12T11:12:19.231Z,1.70
2019-05-12T11:14:46.868Z,3.43
2019-05-12T11:17:13.988Z,2.00
2019-05-12T11:19:45.857Z,3.40
2019-05-12T11:22:09.099Z,3.57
2019-05-12T11:24:35.675Z,1.90
2019-05-12T11:27:04.115Z,4.10
2019-05-12T11:29:43.278Z,2.60
2019-05-12T11:31:59.310Z,3.23
2019-05-12T11:34:25.878Z,3.30
2019-05-12T11:36:54.524Z,3.10
2019-05-12T11:39:23.446Z,2.17
2019-05-12T11:41:49.810Z,1.90
2019-05-12T11:44:16.378Z,2.23
2019-05-12T11:46:44.036Z,2.00
2019-05-12T11:49:11.036Z,1.97
2019-05-12T11:51:37.668Z,2.87
2019-05-12T11:54:09.000Z,2.30
2019-05-12T11:56:33.669Z,2.07
2019-05-12T11:59:00.594Z,3.17
2019-05-12T12:01:28.242Z,1.70
2019-05-12T12:03:54.859Z,4.10
2019-05-12T12:06:23.926Z,2.97
2019-05-12T12:08:49.986Z,1.83
2019-05-12T12:11:22.055Z,2.13
2019-05-12T12:13:45.444Z,2.87
2019-05-12T12:16:14.093Z,1.63
2019-05-12T12:18:48.613Z,2.50
2019-05-12T12:21:09.439Z,1.50
2019-05-12T12:23:36.123Z,2.87
2019-05-12T12:26:04.009Z,2.90
2019-05-12T12:28:30.874Z,4.03
2019-05-12T12:31:01.122Z,1.90
2019-05-12T12:33:31.176Z,1.80
2019-05-12T12:35:56.677Z,2.10
2019-05-12T12:38:23.526Z,2.00
2019-05-12T12:40:50.147Z,1.67
2019-05-12T12:43:16.881Z,1.87
2019-05-12T12:45:45.394Z,4.10
2019-05-12T12:48:13.699Z,1.70
2019-05-12T12:50:40.570Z,3.17
2019-05-12T12:53:07.262Z,2.30
2019-05-12T12:55:37.929Z,1.70
2019-05-12T12:58:03.312Z,1.50
2019-05-12T13:00:45.464Z,1.87
2019-05-12T13:02:59.090Z,1.73
2019-05-12T13:05:25.819Z,2.30
2019-05-12T13:07:53.523Z,1.70
2019-05-12T13:10:20.454Z,2.07
2019-05-12T13:12:50.354Z,1.93
2019-05-12T13:15:16.663Z,1.93
2019-05-12T13:17:44.712Z,1.80
2019-05-12T13:20:11.643Z,3.17
2019-05-12T13:22:38.282Z,4.67
2019-05-12T13:25:08.550Z,1.87
2019-05-12T13:27:36.689Z,3.67
2019-05-12T13:30:05.419Z,2.20
2019-05-12T13:32:37.814Z,2.43
2019-05-12T13:35:01.061Z,1.93
2019-05-12T13:37:27.767Z,2.90
2019-05-12T13:39:58.490Z,1.97
2019-05-12T13:42:24.183Z,1.90
2019-05-12T13:44:51.222Z,1.80
2019-05-12T13:47:18.036Z,2.10
2019-05-12T13:49:47.483Z,2.87
2019-05-12T13:52:13.428Z,1.97
2019-05-12T13:54:40.209Z,3.13
2019-05-12T13:57:11.694Z,1.87
2019-05-12T13:59:35.395Z,5.83
2019-05-12T14:02:03.276Z,5.07
2019-05-12T14:04:30.070Z,2.80
2019-05-12T14:06:56.678Z,2.17
2019-05-12T14:09:23.861Z,6.60
2019-05-12T14:11:50.670Z,2.77
2019-05-12T14:14:17.307Z,2.13
2019-05-12T14:16:52.291Z,1.60
2019-05-12T14:19:14.362Z,1.83
2019-05-12T14:21:42.525Z,2.30
2019-05-12T14:24:09.464Z,5.07
2019-05-12T14:26:39.282Z,1.70
2019-05-12T14:29:04.620Z,2.27
2019-05-12T14:31:36.233Z,2.10
2019-05-12T14:33:59.819Z,2.93
2019-05-12T14:36:26.891Z,3.70
2019-05-12T14:38:53.677Z,2.30
2019-05-12T14:41:20.311Z,1.83
2019-05-12T14:43:47.964Z,1.73
2019-05-12T14:46:14.754Z,2.77
2019-05-12T14:48:48.470Z,2.30
2019-05-12T14:51:10.689Z,1.67
2019-05-12T14:53:38.379Z,1.57
2019-05-12T14:56:05.861Z,3.47
2019-05-12T14:58:33.855Z,1.40
2019-05-12T15:01:00.782Z,1.00
2019-05-12T15:03:27.355Z,1.70
2019-05-12T15:05:54.611Z,1.70
2019-05-12T15:08:31.366Z,1.60
2019-05-12T15:10:50.033Z,2.03
2019-05-12T15:13:17.226Z,1.87
2019-05-12T15:15:44.168Z,2.00
2019-05-12T15:18:13.179Z,1.60
2019-05-12T15:20:41.594Z,1.50
2019-05-12T15:23:08.168Z,1.10
2019-05-12T15:25:35.309Z,1.30
2019-05-12T15:28:03.899Z,1.50
2019-05-12T15:30:30.825Z,1.47
2019-05-12T15:32:57.423Z,1.37
2019-05-12T15:35:24.167Z,2.50
2019-05-12T15:37:52.896Z,2.60
2019-05-12T15:40:19.362Z,1.50
2019-05-12T15:42:46.295Z,1.53
2019-05-12T15:45:16.607Z,2.10
2019-05-12T15:47:44.289Z,1.73
2019-05-12T15:50:10.362Z,1.40
2019-05-12T15:52:42.280Z,2.83
2019-05-12T15:55:05.717Z,1.70
2019-05-12T15:57:33.469Z,2.47
2019-05-12T16:00:00.311Z,1.30
2019-05-12T16:02:26.961Z,2.70
2019-05-12T16:04:54.942Z,3.00
2019-05-12T16:07:24.155Z,1.40
2019-05-12T16:09:50.439Z,1.30
2019-05-12T16:12:23.153Z,1.30
2019-05-12T16:14:45.591Z,2.00
2019-05-12T16:17:18.983Z,2.73
2019-05-12T16:19:40.782Z,1.60
2019-05-12T16:22:07.407Z,1.97
2019-05-12T16:24:34.217Z,5.83
2019-05-12T16:27:00.938Z,1.93
2019-05-12T16:29:27.594Z,1.43
2019-05-12T16:31:54.308Z,1.80
2019-05-12T16:34:21.234Z,1.10
2019-05-12T16:36:52.060Z,1.30
2019-05-12T16:39:16.366Z,1.73
2019-05-12T16:41:43.893Z,1.30
2019-05-12T16:44:17.486Z,2.50
2019-05-12T16:46:39.378Z,1.90
2019-05-12T16:49:06.355Z,1.10
2019-05-12T16:51:33.349Z,1.30
2019-05-12T16:54:00.155Z,4.20
2019-05-12T16:56:29.732Z,1.53
2019-05-12T16:58:55.270Z,2.87
2019-05-12T17:01:25.823Z,1.27
2019-05-12T17:03:50.315Z,1.40
2019-05-12T17:06:16.886Z,1.40
2019-05-12T17:08:43.902Z,1.37
2019-05-12T17:11:24.168Z,1.37
2019-05-12T17:13:39.210Z,2.70
2019-05-12T17:16:05.794Z,2.63
2019-05-12T17:18:33.898Z,2.40
2019-05-12T17:21:00.850Z,1.80
2019-05-12T17:23:27.512Z,1.60
2019-05-12T17:25:54.075Z,1.70
2019-05-12T17:28:20.658Z,1.43
2019-05-12T17:30:47.293Z,1.47
2019-05-12T17:33:22.223Z,10.53
2019-05-12T17:35:44.530Z,4.20
2019-05-12T17:38:18.779Z,1.50
2019-05-12T17:40:39.379Z,1.63
2019-05-12T17:43:11.586Z,1.37
2019-05-12T17:45:34.666Z,1.30
2019-05-12T17:48:03.642Z,3.40
2019-05-12T17:50:30.238Z,1.40
2019-05-12T17:53:00.233Z,1.30
2019-05-12T17:55:25.374Z,2.40
2019-05-12T17:57:56.143Z,1.60
2019-05-12T18:00:23.354Z,1.60
2019-05-12T18:02:54.373Z,1.90
2019-05-12T18:05:17.763Z,4.43
2019-05-12T18:07:44.740Z,2.60
2019-05-12T18:10:13.529Z,1.67
2019-05-12T18:12:44.778Z,2.20
2019-05-12T18:15:09.099Z,2.37
2019-05-12T18:17:39.111Z,3.27
2019-05-12T18:20:05.231Z,1.80
2019-05-12T18:22:33.961Z,1.77
2019-05-12T18:25:00.655Z,2.20
2019-05-12T18:27:27.235Z,3.13
2019-05-12T18:29:54.077Z,2.27
2019-05-12T18:32:20.727Z,2.30
2019-05-12T18:34:47.291Z,3.10
2019-05-12T18:37:13.870Z,2.80
2019-05-12T18:39:40.702Z,2.60
2019-05-12T18:42:07.519Z,2.50
2019-05-12T18:44:34.075Z,2.30
2019-05-12T18:47:00.680Z,2.47
2019-05-12T18:49:27.314Z,2.30
2019-05-12T18:51:55.193Z,1.83
2019-05-12T18:54:24.293Z,3.23
2019-05-12T18:56:52.422Z,3.53
2019-05-12T18:59:19.714Z,2.13
2019-05-12T19:01:46.294Z,6.53
2019-05-12T19:04:14.376Z,28.10
2019-05-12T19:06:43.793Z,5.60
2019-05-12T19:09:09.844Z,4.47
2019-05-12T19:11:54.786Z,3.03
2019-05-12T19:14:22.862Z,3.63
2019-05-12T19:16:49.726Z,3.53
2019-05-12T19:19:19.886Z,3.63
2019-05-12T19:21:46.887Z,2.97
2019-05-12T19:24:15.326Z,2.17
2019-05-12T19:26:44.061Z,3.80
2019-05-12T19:29:10.714Z,3.30
2019-05-12T19:31:45.265Z,2.97
2019-05-12T19:34:18.343Z,3.80
2019-05-12T19:36:36.006Z,5.40
2019-05-12T19:39:05.251Z,3.07
2019-05-12T19:41:36.356Z,2.70
2019-05-12T19:44:00.414Z,4.43
2019-05-12T19:46:27.279Z,3.23
2019-05-12T19:48:54.139Z,2.10
2019-05-12T19:51:27.091Z,4.03
2019-05-12T19:53:49.366Z,4.17
2019-05-12T19:56:18.874Z,2.83
2019-05-12T19:58:45.991Z,4.13
2019-05-12T20:01:14.057Z,5.90
2019-05-12T20:03:40.910Z,5.07
2019-05-12T20:06:07.524Z,22.60
2019-05-12T20:08:34.154Z,5.47
2019-05-12T20:11:00.766Z,3.43
2019-05-12T20:13:29.454Z,3.60
2019-05-12T20:15:55.928Z,4.50
2019-05-12T20:18:23.656Z,3.20
2019-05-12T20:20:50.559Z,3.10
2019-05-12T20:23:17.186Z,2.73
2019-05-12T20:25:44.375Z,2.83
2019-05-12T20:28:14.156Z,3.13
2019-05-12T20:30:39.955Z,3.17
2019-05-12T20:33:08.164Z,3.80
2019-05-12T20:35:39.293Z,5.13
2019-05-12T20:38:04.120Z,2.67
2019-05-12T20:40:32.238Z,4.73
2019-05-12T20:43:07.847Z,3.40
2019-05-12T20:45:33.002Z,3.60
2019-05-12T20:47:56.562Z,2.77
2019-05-12T20:50:31.964Z,3.30
2019-05-12T20:52:58.535Z,5.20
2019-05-12T20:55:20.094Z,3.37
2019-05-12T20:57:53.908Z,3.10
2019-05-12T21:00:15.443Z,4.17
2019-05-12T21:02:44.200Z,3.00
2019-05-12T21:05:18.230Z,4.40
2019-05-12T21:07:39.408Z,3.47
2019-05-12T21:10:06.171Z,3.40
2019-05-12T21:12:33.456Z,2.70
2019-05-12T21:15:12.656Z,3.20
2019-05-12T21:17:39.642Z,4.27
2019-05-12T21:19:59.492Z,3.33
2019-05-12T21:22:25.682Z,2.70
2019-05-12T21:24:53.382Z,3.30
2019-05-12T21:27:20.117Z,3.30
2019-05-12T21:29:46.718Z,3.20
2019-05-12T21:32:16.645Z,5.57
2019-05-12T21:34:43.665Z,3.40
2019-05-12T21:37:10.397Z,5.63
2019-05-12T21:39:40.614Z,3.80
2019-05-12T21:42:05.534Z,3.40
2019-05-12T21:44:32.180Z,3.27
2019-05-12T21:47:05.390Z,4.13
2019-05-12T21:49:27.220Z,3.53
2019-05-12T21:51:58.929Z,3.50
2019-05-12T21:54:24.171Z,3.47
2019-05-12T21:56:50.849Z,4.13
2019-05-12T21:59:17.406Z,4.33
2019-05-12T22:01:45.932Z,5.03
2019-05-12T22:04:14.334Z,3.67
2019-05-12T22:06:40.997Z,8.77
2019-05-12T22:09:07.654Z,4.53
2019-05-12T22:11:34.733Z,4.53
2019-05-12T22:14:04.062Z,5.47
2019-05-12T22:16:39.692Z,6.07
2019-05-12T22:19:00.150Z,3.50
2019-05-12T22:21:26.827Z,2.50
2019-05-12T22:23:54.251Z,4.60
2019-05-12T22:26:21.866Z,5.10
2019-05-12T22:28:50.852Z,4.00
2019-05-12T22:31:17.130Z,4.87
2019-05-12T22:33:49.913Z,5.13
2019-05-12T22:36:20.694Z,2.70
2019-05-12T22:38:40.915Z,2.70
2019-05-12T22:41:07.522Z,2.07
2019-05-12T22:43:40.822Z,2.53
2019-05-12T22:46:04.552Z,5.17
2019-05-12T22:48:37.313Z,4.20
2019-05-12T22:50:59.997Z,2.87
2019-05-12T22:53:30.077Z,4.20
2019-05-12T22:55:55.508Z,2.90
2019-05-12T22:58:25.192Z,5.90
2019-05-12T23:00:51.219Z,4.50
2019-05-12T23:03:19.362Z,2.73
2019-05-12T23:05:50.609Z,3.43
2019-05-12T23:08:14.519Z,4.77
2019-05-12T23:10:41.489Z,2.53
2019-05-12T23:13:09.910Z,3.33
2019-05-12T23:15:38.768Z,1.90
2019-05-12T23:18:06.387Z,4.60
2019-05-12T23:20:35.567Z,3.30
2019-05-12T23:23:03.675Z,3.93
2019-05-12T23:25:30.155Z,3.83
2019-05-12T23:28:00.251Z,5.17
2019-05-12T23:30:25.490Z,4.03
2019-05-12T23:32:53.022Z,5.20
2019-05-12T23:35:20.256Z,3.03
2019-05-12T23:37:46.891Z,3.37
2019-05-12T23:40:16.662Z,4.40
2019-05-12T23:42:44.445Z,6.57
2019-05-12T23:45:10.551Z,3.17
2019-05-12T23:47:37.161Z,3.30
2019-05-12T23:50:05.307Z,3.50
2019-05-12T23:52:31.914Z,3.77
2019-05-12T23:54:58.562Z,4.00
2019-05-12T23:57:25.506Z,2.17
2019-05-12T23:59:52.118Z,2.50
